createdAt,value
2023-05-21T00:00:39.747Z,99.6214
2023-05-21T00:01:42.453Z,99.6190
2023-05-21T00:02:44.924Z,99.6139
2023-05-21T00:03:46.911Z,99.6280
2023-05-21T00:04:48.698Z,99.6149
2023-05-21T00:06:51.869Z,99.6467
2023-05-21T00:07:53.534Z,99.6974
2023-05-21T00:08:55.210Z,99.7167
2023-05-21T00:09:57.520Z,99.7348
2023-05-21T00:10:59.845Z,99.7540
2023-05-21T00:12:02.217Z,99.7680
2023-05-21T00:13:04.735Z,99.7874
2023-05-21T00:14:06.405Z,99.7998
2023-05-21T00:15:08.290Z,99.8306
2023-05-21T00:16:10.164Z,99.8606
2023-05-21T00:17:12.418Z,99.8937
2023-05-21T00:18:14.760Z,99.9238
2023-05-21T00:19:17.957Z,99.9717
2023-05-21T00:26:29.185Z,100.0000
2023-05-21T00:27:31.702Z,100.0000
2023-05-21T00:28:33.355Z,100.0000
2023-05-21T00:29:35.010Z,99.9995
2023-05-21T00:30:37.829Z,100.0000
2023-05-21T00:31:39.532Z,100.0000
2023-05-21T00:32:41.240Z,100.0000
2023-05-21T00:33:44.009Z,100.0000
2023-05-21T00:35:44.367Z,100.0000
2023-05-21T00:36:46.019Z,100.0000
2023-05-21T00:37:47.688Z,100.0000
2023-05-21T00:38:51.037Z,100.0000
2023-05-21T00:40:52.763Z,100.0000
2023-05-21T00:41:54.847Z,100.0000
2023-05-21T00:43:58.322Z,100.0000
2023-05-21T00:45:00.008Z,100.0000
2023-05-21T00:48:04.620Z,100.0000
2023-05-21T00:49:06.301Z,100.0000
2023-05-21T00:50:07.953Z,100.0000
2023-05-21T00:51:09.591Z,100.0000
2023-05-21T00:52:10.164Z,100.0000
2023-05-21T00:53:11.807Z,100.0000
2023-05-21T00:54:14.546Z,100.0000
2023-05-21T00:55:16.203Z,100.0000
2023-05-21T00:56:17.849Z,100.0000
2023-05-21T00:57:19.518Z,100.0000
2023-05-21T00:58:21.154Z,100.0000
2023-05-21T00:59:22.833Z,100.0000
2023-05-21T01:00:24.506Z,100.0000
2023-05-21T01:01:26.182Z,100.0000
2023-05-21T01:02:27.823Z,100.0000
2023-05-21T01:03:29.611Z,100.0000
2023-05-21T01:04:31.302Z,100.0000
2023-05-21T01:05:33.089Z,100.0000
2023-05-21T01:06:34.837Z,100.0000
2023-05-21T01:07:36.510Z,100.0000
2023-05-21T01:08:38.193Z,100.0000
2023-05-21T01:10:41.318Z,100.0000
2023-05-21T01:11:44.157Z,100.0000
2023-05-21T01:20:57.144Z,100.0000
2023-05-21T01:21:59.485Z,100.0000
2023-05-21T01:23:01.787Z,100.0000
2023-05-21T01:24:04.210Z,100.0000
2023-05-21T01:25:05.952Z,100.0000
2023-05-21T01:26:08.278Z,100.0000
2023-05-21T01:27:10.676Z,99.9992
2023-05-21T01:28:12.955Z,99.9999
2023-05-21T01:29:14.646Z,99.9985
2023-05-21T01:30:16.263Z,99.9846
2023-05-21T01:31:18.597Z,99.9659
2023-05-21T01:32:20.219Z,99.9356
2023-05-21T01:34:23.408Z,99.8229
2023-05-21T01:35:25.152Z,99.8090
2023-05-21T01:36:26.850Z,99.7929
2023-05-21T01:37:29.131Z,99.7782
2023-05-21T01:38:31.438Z,99.7846
2023-05-21T01:39:33.741Z,99.7774
2023-05-21T01:40:36.040Z,99.7799
2023-05-21T01:41:37.674Z,99.8090
2023-05-21T01:42:40.266Z,99.8116
2023-05-21T01:43:42.647Z,99.8102
2023-05-21T01:44:45.262Z,99.8309
2023-05-21T01:45:47.704Z,99.8150
2023-05-21T01:46:49.390Z,99.7590
2023-05-21T01:47:51.888Z,99.7003
2023-05-21T01:48:53.517Z,99.6713
2023-05-21T01:49:56.053Z,99.6868
2023-05-21T01:50:58.448Z,99.6867
2023-05-21T01:52:00.777Z,99.6700
2023-05-21T01:53:03.199Z,99.6615
2023-05-21T01:54:05.190Z,99.6745
2023-05-21T01:55:07.575Z,99.7013
2023-05-21T01:56:09.204Z,99.7339
2023-05-21T01:57:11.162Z,99.7467
2023-05-21T01:59:14.335Z,99.7602
2023-05-21T02:00:15.996Z,99.7672
2023-05-21T02:01:17.762Z,99.7737
2023-05-21T02:02:20.158Z,99.7778
2023-05-21T02:03:22.748Z,99.7787
2023-05-21T02:04:25.089Z,99.7691
2023-05-21T02:05:27.065Z,99.7629
2023-05-21T02:07:30.903Z,99.7451
2023-05-21T02:08:32.555Z,99.7657
2023-05-21T02:09:34.251Z,99.7522
2023-05-21T02:11:38.223Z,99.7930
2023-05-21T02:12:40.933Z,99.7856
2023-05-21T02:13:42.577Z,99.7052
2023-05-21T02:14:44.825Z,99.6664
2023-05-21T02:15:47.086Z,99.6248
2023-05-21T02:16:49.448Z,99.6399
2023-05-21T02:17:51.194Z,99.6402
2023-05-21T02:18:52.852Z,99.6823
2023-05-21T02:19:54.470Z,99.6117
2023-05-21T02:20:56.117Z,99.6053
2023-05-21T02:21:57.816Z,99.6438
2023-05-21T02:22:59.421Z,99.7018
2023-05-21T02:24:02.399Z,99.7239
2023-05-21T02:25:07.226Z,99.7808
2023-05-21T02:32:13.077Z,99.6687
2023-05-21T02:33:14.779Z,99.6768
2023-05-21T02:34:16.451Z,99.7536
2023-05-21T02:35:18.097Z,99.7223
2023-05-21T02:36:19.768Z,99.7582
2023-05-21T02:37:21.454Z,99.7561
2023-05-21T02:38:23.240Z,99.7249
2023-05-21T02:39:24.940Z,99.7157
2023-05-21T02:40:26.589Z,99.7383
2023-05-21T02:41:28.241Z,99.7771
2023-05-21T02:42:30.532Z,99.7560
2023-05-21T02:43:32.874Z,99.7577
2023-05-21T02:44:34.551Z,99.7760
2023-05-21T02:45:36.456Z,99.8052
2023-05-21T02:46:38.830Z,99.7886
2023-05-21T02:47:41.448Z,99.7723
2023-05-21T02:48:43.848Z,99.8476
2023-05-21T02:49:46.573Z,99.8773
2023-05-21T02:50:48.194Z,99.8113
2023-05-21T02:51:49.859Z,99.6692
2023-05-21T02:52:51.519Z,99.5740
2023-05-21T02:53:53.440Z,99.6793
2023-05-21T02:54:55.101Z,99.7198
2023-05-21T02:56:59.738Z,99.9105
2023-05-21T03:03:06.843Z,100.0000
2023-05-21T03:04:09.083Z,100.0000
2023-05-21T03:05:10.717Z,100.0000
2023-05-21T03:06:12.367Z,100.0000
2023-05-21T03:08:16.162Z,100.0000
2023-05-21T03:09:17.867Z,100.0000
2023-05-21T03:10:19.553Z,100.0000
2023-05-21T03:12:23.970Z,100.0000
2023-05-21T03:13:25.635Z,100.0000
2023-05-21T03:14:27.309Z,100.0000
2023-05-21T03:15:28.952Z,100.0000
2023-05-21T03:16:30.606Z,100.0000
2023-05-21T03:18:34.697Z,100.0000
2023-05-21T03:21:39.409Z,100.0000
2023-05-21T03:22:42.406Z,100.0000
2023-05-21T03:25:45.051Z,99.9791
2023-05-21T03:26:47.388Z,99.9933
2023-05-21T03:27:49.752Z,100.0000
2023-05-21T03:28:51.403Z,100.0000
2023-05-21T03:29:53.102Z,100.0000
2023-05-21T03:30:54.897Z,100.0000
2023-05-21T03:31:56.714Z,100.0000
2023-05-21T03:32:58.457Z,100.0000
2023-05-21T03:34:00.697Z,100.0000
2023-05-21T03:35:02.389Z,100.0000
2023-05-21T03:36:04.082Z,100.0000
2023-05-21T03:38:07.331Z,100.0000
2023-05-21T03:39:09.061Z,100.0000
2023-05-21T03:40:10.763Z,100.0000
2023-05-21T03:41:12.467Z,100.0000
2023-05-21T03:43:15.698Z,100.0000
2023-05-21T03:44:17.421Z,100.0000
2023-05-21T03:45:20.243Z,100.0000
2023-05-21T03:55:35.691Z,100.0000
2023-05-21T03:56:37.475Z,100.0000
2023-05-21T03:57:39.147Z,100.0000
2023-05-21T03:58:40.860Z,100.0000
2023-05-21T03:59:42.510Z,100.0000
2023-05-21T04:00:44.198Z,100.0000
2023-05-21T04:01:45.890Z,100.0000
2023-05-21T04:02:47.688Z,100.0000
2023-05-21T04:03:50.214Z,100.0000
2023-05-21T04:04:52.220Z,100.0000
2023-05-21T04:05:53.910Z,100.0000
2023-05-21T04:06:55.565Z,100.0000
2023-05-21T04:07:57.838Z,100.0000
2023-05-21T04:09:00.359Z,100.0000
2023-05-21T04:10:03.175Z,100.0000
2023-05-21T04:11:04.873Z,100.0000
2023-05-21T04:12:06.574Z,100.0000
2023-05-21T04:13:08.260Z,100.0000
2023-05-21T04:15:11.795Z,100.0000
2023-05-21T04:16:13.550Z,100.0000
2023-05-21T04:18:16.797Z,100.0000
2023-05-21T04:19:18.609Z,100.0000
2023-05-21T04:20:20.594Z,100.0000
2023-05-21T04:22:24.524Z,100.0000
2023-05-21T04:23:27.186Z,100.0000
2023-05-21T04:24:28.909Z,100.0000
2023-05-21T04:25:30.654Z,100.0000
2023-05-21T04:26:32.336Z,100.0000
2023-05-21T04:27:34.806Z,100.0000
2023-05-21T04:28:37.108Z,100.0000
2023-05-21T04:29:38.809Z,100.0000
2023-05-21T04:30:40.516Z,100.0000
2023-05-21T04:31:42.964Z,100.0000
2023-05-21T04:32:44.757Z,100.0000
2023-05-21T04:33:46.420Z,100.0000
2023-05-21T04:34:48.128Z,100.0000
2023-05-21T04:35:50.899Z,100.0000
2023-05-21T04:44:03.968Z,100.0000
2023-05-21T04:45:06.360Z,99.9942
2023-05-21T04:46:08.034Z,99.9837
2023-05-21T04:47:09.784Z,99.9545
2023-05-21T04:48:12.323Z,99.8896
2023-05-21T04:49:14.054Z,99.8858
2023-05-21T04:50:15.706Z,99.8348
2023-05-21T04:51:18.060Z,99.7637
2023-05-21T04:52:19.759Z,99.6559
2023-05-21T04:53:21.461Z,99.5432
2023-05-21T04:54:23.170Z,99.3412
2023-05-21T04:55:25.665Z,99.1399
2023-05-21T04:56:28.031Z,98.9975
2023-05-21T04:57:29.730Z,98.8283
2023-05-21T04:58:31.446Z,98.7898
2023-05-21T04:59:33.759Z,98.7693
2023-05-21T05:00:36.082Z,98.8330
2023-05-21T05:01:37.775Z,98.7158
2023-05-21T05:03:41.759Z,98.3117
2023-05-21T05:04:44.135Z,98.1217
2023-05-21T05:05:45.843Z,97.9329
2023-05-21T05:06:47.543Z,97.6436
2023-05-21T05:07:49.519Z,97.5111
2023-05-21T05:08:51.246Z,97.2124
2023-05-21T05:09:52.951Z,96.9628
2023-05-21T05:11:56.823Z,96.6279
2023-05-21T05:12:58.994Z,96.6918
2023-05-21T05:14:00.696Z,96.6467
2023-05-21T05:15:02.774Z,96.5569
2023-05-21T05:16:04.603Z,96.8424
2023-05-21T05:17:06.318Z,97.1543
2023-05-21T05:20:11.866Z,97.2238
2023-05-21T05:21:14.350Z,97.1259
2023-05-21T05:22:16.654Z,96.9759
2023-05-21T05:24:20.651Z,96.6483
2023-05-21T05:25:22.352Z,96.4177
2023-05-21T05:26:24.059Z,96.5026
2023-05-21T05:28:27.971Z,96.4714
2023-05-21T05:29:30.274Z,96.4766
2023-05-21T05:30:32.002Z,96.3715
2023-05-21T05:33:37.846Z,95.9050
2023-05-21T05:34:40.211Z,95.7379
2023-05-21T05:35:42.566Z,95.6311
2023-05-21T05:36:45.007Z,95.5056
2023-05-21T05:37:46.741Z,95.2677
2023-05-21T05:39:50.630Z,94.7315
2023-05-21T05:40:52.987Z,94.3908
2023-05-21T05:41:54.860Z,94.5185
2023-05-21T05:42:56.783Z,94.2779
2023-05-21T05:43:58.542Z,94.3334
2023-05-21T05:45:01.655Z,94.2718
2023-05-21T05:46:00.645Z,94.2340
2023-05-21T05:47:02.581Z,94.1797
2023-05-21T05:48:05.624Z,94.4496
2023-05-21T05:49:07.988Z,94.8257
2023-05-21T05:50:09.731Z,94.5792
2023-05-21T05:51:12.110Z,94.4949
2023-05-21T05:52:14.535Z,94.2597
2023-05-21T05:53:16.285Z,94.0653
2023-05-21T05:55:20.519Z,93.3002
2023-05-21T05:56:23.101Z,93.1840
2023-05-21T05:57:26.039Z,93.2523
2023-05-21T06:04:37.275Z,92.6085
2023-05-21T06:05:39.937Z,92.5397
2023-05-21T06:07:41.571Z,91.3947
2023-05-21T06:08:43.441Z,91.6225
2023-05-21T06:09:45.857Z,91.9074
2023-05-21T06:10:48.411Z,92.2516
2023-05-21T06:11:51.052Z,92.3464
2023-05-21T06:12:53.453Z,92.0783
2023-05-21T06:13:55.192Z,91.8705
2023-05-21T06:14:56.917Z,91.6786
2023-05-21T06:15:59.310Z,91.6850
2023-05-21T06:17:00.997Z,91.4498
2023-05-21T06:20:05.052Z,92.0978
2023-05-21T06:21:07.589Z,91.4186
2023-05-21T06:22:10.019Z,90.5491
2023-05-21T06:23:11.754Z,90.7726
2023-05-21T06:24:14.105Z,89.7774
2023-05-21T06:25:14.289Z,88.9586
2023-05-21T06:32:24.803Z,85.7121
2023-05-21T06:33:27.743Z,85.9800
2023-05-21T06:34:27.672Z,85.6612
2023-05-21T06:36:31.660Z,86.5128
2023-05-21T06:37:33.392Z,88.0803
2023-05-21T06:38:35.332Z,87.9148
2023-05-21T06:39:37.275Z,86.7259
2023-05-21T06:40:39.792Z,86.6045
2023-05-21T06:41:42.348Z,86.2244
2023-05-21T06:42:44.083Z,86.6499
2023-05-21T06:43:46.321Z,87.7504
2023-05-21T06:44:49.214Z,88.2357
2023-05-21T06:45:50.985Z,87.5767
2023-05-21T06:46:52.695Z,86.1363
2023-05-21T06:47:54.468Z,86.4479
2023-05-21T06:48:56.890Z,86.7494
2023-05-21T06:49:59.213Z,86.0519
2023-05-21T06:51:01.598Z,85.0584
2023-05-21T06:52:03.365Z,85.1295
2023-05-21T06:54:07.416Z,85.1136
2023-05-21T06:55:09.167Z,85.4374
2023-05-21T06:56:11.070Z,86.0494
2023-05-21T06:57:12.820Z,85.7997
2023-05-21T06:59:16.991Z,85.0130
2023-05-21T07:02:20.874Z,83.1953
2023-05-21T07:03:21.459Z,83.3545
2023-05-21T07:10:32.031Z,85.0271
2023-05-21T07:12:33.582Z,83.8472
2023-05-21T07:13:35.916Z,83.0334
2023-05-21T07:14:38.477Z,81.8128
2023-05-21T07:15:40.218Z,82.3026
2023-05-21T07:16:42.011Z,82.1205
2023-05-21T07:17:43.779Z,80.0172
2023-05-21T07:18:46.224Z,78.8841
2023-05-21T07:19:48.289Z,77.0078
2023-05-21T07:21:52.480Z,81.0206
2023-05-21T07:22:55.053Z,81.9077
2023-05-21T07:23:57.616Z,80.7994
2023-05-21T07:24:59.338Z,78.3988
2023-05-21T07:26:01.219Z,80.0141
2023-05-21T07:27:08.766Z,79.9596
2023-05-21T07:28:06.806Z,79.9333
2023-05-21T07:37:21.512Z,76.3788
2023-05-21T07:38:23.233Z,76.0373
2023-05-21T07:39:25.115Z,77.1006
2023-05-21T07:40:27.111Z,77.3452
2023-05-21T07:41:29.272Z,77.3750
2023-05-21T07:42:31.031Z,75.7774
2023-05-21T07:43:32.768Z,74.8697
2023-05-21T07:44:34.654Z,76.9836
2023-05-21T07:45:37.404Z,76.5968
2023-05-21T07:46:38.532Z,77.1123
2023-05-21T07:48:40.104Z,74.9063
2023-05-21T07:49:40.366Z,72.0669
2023-05-21T07:50:40.241Z,70.7056
2023-05-21T07:51:42.857Z,74.8832
2023-05-21T07:52:45.426Z,76.8953
2023-05-21T07:53:47.899Z,74.9418
2023-05-21T07:54:49.908Z,76.3722
2023-05-21T07:55:51.790Z,74.6432
2023-05-21T07:58:56.678Z,74.8014
2023-05-21T08:01:01.191Z,74.0762
2023-05-21T08:02:03.536Z,75.0291
2023-05-21T08:03:05.310Z,75.6845
2023-05-21T08:04:07.359Z,76.6579
2023-05-21T08:05:10.817Z,76.2306
2023-05-21T08:06:11.348Z,76.5336
2023-05-21T08:07:13.605Z,75.7160
2023-05-21T08:08:16.210Z,76.3383
2023-05-21T08:09:18.151Z,76.5607
2023-05-21T08:11:22.589Z,74.9411
2023-05-21T08:12:24.332Z,73.9841
2023-05-21T08:13:26.793Z,74.4787
2023-05-21T08:14:28.709Z,73.4625
2023-05-21T08:16:33.512Z,69.5445
2023-05-21T08:17:35.474Z,68.3393
2023-05-21T08:18:37.727Z,70.4637
2023-05-21T08:19:40.145Z,69.8763
2023-05-21T08:20:42.926Z,70.8490
2023-05-21T08:24:48.907Z,71.5642
2023-05-21T08:25:51.727Z,71.7593
2023-05-21T08:27:56.081Z,69.2587
2023-05-21T08:28:58.411Z,69.2506
2023-05-21T08:30:00.850Z,69.7724
2023-05-21T08:31:02.568Z,69.9555
2023-05-21T08:32:04.318Z,73.2074
2023-05-21T08:33:06.786Z,71.6984
2023-05-21T08:34:08.537Z,71.7600
2023-05-21T08:35:10.258Z,69.8476
2023-05-21T08:36:12.076Z,68.5030
2023-05-21T08:37:14.081Z,69.2727
2023-05-21T08:38:16.468Z,69.4978
2023-05-21T08:39:18.919Z,66.8113
2023-05-21T08:40:21.239Z,61.7272
2023-05-21T08:41:22.950Z,63.6497
2023-05-21T08:42:35.742Z,62.9780
2023-05-21T08:44:31.184Z,65.6817
2023-05-21T08:50:38.382Z,66.2301
2023-05-21T08:53:41.227Z,66.7942
2023-05-21T08:54:42.942Z,69.5243
2023-05-21T08:55:44.677Z,66.8480
2023-05-21T08:56:47.154Z,66.6213
2023-05-21T08:58:07.757Z,68.7917
2023-05-21T08:58:50.599Z,70.8721
2023-05-21T08:59:53.019Z,70.5029
2023-05-21T09:00:55.441Z,71.5199
2023-05-21T09:01:57.271Z,71.2374
2023-05-21T09:02:59.980Z,67.6665
2023-05-21T09:04:16.155Z,68.9918
2023-05-21T09:05:04.387Z,69.3678
2023-05-21T09:06:06.145Z,72.0577
2023-05-21T09:07:08.605Z,66.7072
2023-05-21T09:08:11.390Z,62.9698
2023-05-21T09:09:13.108Z,63.1585
2023-05-21T09:12:19.452Z,62.5724
2023-05-21T09:13:21.849Z,61.7627
2023-05-21T09:14:23.585Z,59.9741
2023-05-21T09:16:27.575Z,64.0470
2023-05-21T09:17:30.093Z,62.0412
2023-05-21T09:18:31.800Z,59.8577
2023-05-21T09:19:33.711Z,59.0878
2023-05-21T09:20:36.545Z,62.0064
2023-05-21T09:24:40.701Z,60.4324
2023-05-21T09:25:42.468Z,61.8304
2023-05-21T09:26:45.133Z,62.4593
2023-05-21T09:27:45.104Z,63.2184
2023-05-21T09:28:47.522Z,63.6527
2023-05-21T09:29:49.260Z,63.2370
2023-05-21T09:31:00.060Z,62.9991
2023-05-21T09:37:06.443Z,57.1617
2023-05-21T09:41:09.789Z,57.7997
2023-05-21T09:42:11.987Z,57.6912
2023-05-21T09:44:15.754Z,57.5418
2023-05-21T09:45:17.712Z,60.8152
2023-05-21T09:46:19.482Z,62.5637
2023-05-21T09:48:22.794Z,59.1502
2023-05-21T09:49:26.212Z,62.1023
2023-05-21T09:53:31.143Z,60.9689
2023-05-21T09:54:32.864Z,61.3947
2023-05-21T09:55:34.622Z,62.6767
2023-05-21T09:56:36.464Z,61.6983
2023-05-21T09:57:38.174Z,61.8423
2023-05-21T09:58:39.953Z,62.6068
2023-05-21T09:59:41.703Z,64.0370
2023-05-21T10:00:43.461Z,65.2060
2023-05-21T10:02:47.585Z,65.5456
2023-05-21T10:03:50.739Z,66.2138
2023-05-21T10:04:50.474Z,63.0667
2023-05-21T10:06:54.399Z,61.9041
2023-05-21T10:07:56.735Z,61.5310
2023-05-21T10:08:59.085Z,60.0028
2023-05-21T10:10:00.825Z,61.7693
2023-05-21T10:11:02.687Z,58.7470
2023-05-21T10:12:05.467Z,59.5477
2023-05-21T10:13:07.897Z,55.7893
2023-05-21T10:14:09.649Z,58.1829
2023-05-21T10:15:11.374Z,60.8690
2023-05-21T10:16:13.865Z,60.5894
2023-05-21T10:17:16.382Z,60.5664
2023-05-21T10:18:18.708Z,63.1303
2023-05-21T10:19:21.220Z,63.1477
2023-05-21T10:20:22.970Z,61.3327
2023-05-21T10:21:25.271Z,60.7988
2023-05-21T10:22:27.708Z,61.4844
2023-05-21T10:23:29.529Z,61.4267
2023-05-21T10:24:31.248Z,58.4594
2023-05-21T10:26:35.340Z,61.1597
2023-05-21T10:27:37.944Z,60.2638
2023-05-21T10:28:40.407Z,60.8593
2023-05-21T10:29:42.615Z,61.5966
2023-05-21T10:30:45.135Z,62.2152
2023-05-21T10:31:47.573Z,61.6630
2023-05-21T10:32:50.372Z,59.0009
2023-05-21T10:34:04.982Z,57.8452
2023-05-21T10:35:55.146Z,59.7821
2023-05-21T10:36:57.969Z,61.9267
2023-05-21T10:39:20.814Z,59.5257
2023-05-21T10:40:01.081Z,59.8691
2023-05-21T10:41:02.809Z,59.2588
2023-05-21T10:42:05.191Z,59.3006
2023-05-21T10:43:07.527Z,56.7894
2023-05-21T10:44:10.067Z,56.0569
2023-05-21T10:45:11.834Z,58.2007
2023-05-21T10:46:13.611Z,58.5011
2023-05-21T10:47:16.069Z,59.6488
2023-05-21T10:48:18.970Z,60.5081
2023-05-21T10:51:21.205Z,56.1458
2023-05-21T10:52:22.960Z,54.2207
2023-05-21T10:53:24.826Z,54.2846
2023-05-21T10:54:26.669Z,52.6741
2023-05-21T10:55:28.965Z,53.8914
2023-05-21T10:56:30.673Z,55.1274
2023-05-21T10:57:33.067Z,57.9862
2023-05-21T10:58:34.847Z,60.9694
2023-05-21T10:59:36.609Z,60.6323
2023-05-21T11:00:38.464Z,61.2707
2023-05-21T11:03:44.880Z,59.6262
2023-05-21T11:04:46.637Z,58.9875
2023-05-21T11:05:48.466Z,62.1839
2023-05-21T11:06:50.231Z,61.1485
2023-05-21T11:07:52.126Z,61.0964
2023-05-21T11:08:55.362Z,61.8413
2023-05-21T11:09:54.714Z,60.0224
2023-05-21T11:10:58.564Z,59.1096
2023-05-21T11:11:58.216Z,58.3708
2023-05-21T11:13:00.601Z,58.7233
2023-05-21T11:14:03.152Z,60.1803
2023-05-21T11:15:05.455Z,59.0399
2023-05-21T11:17:09.685Z,58.3271
2023-05-21T11:18:12.668Z,59.1797
2023-05-21T11:27:27.550Z,60.8187
2023-05-21T11:28:29.322Z,59.0635
2023-05-21T11:29:31.109Z,58.5223
2023-05-21T11:30:35.238Z,59.1770
2023-05-21T11:31:35.441Z,59.8779
2023-05-21T11:32:37.170Z,59.4858
2023-05-21T11:33:38.910Z,57.6929
2023-05-21T11:34:40.657Z,55.8761
2023-05-21T11:36:44.838Z,56.5731
2023-05-21T11:37:47.233Z,55.4966
2023-05-21T11:38:49.684Z,57.1879
2023-05-21T11:39:52.744Z,57.1756
2023-05-21T11:40:52.862Z,53.8196
2023-05-21T11:41:53.409Z,54.1939
2023-05-21T11:44:57.199Z,48.9250
2023-05-21T11:49:43.362Z,54.0957
2023-05-21T11:50:44.248Z,57.2867
2023-05-21T11:51:46.206Z,57.7914
2023-05-21T11:52:48.871Z,55.3985
2023-05-21T11:53:51.512Z,55.0412
2023-05-21T11:54:53.344Z,54.4200
2023-05-21T11:55:55.278Z,52.6873
2023-05-21T11:56:57.272Z,54.3372
2023-05-21T11:57:59.682Z,49.6468
2023-05-21T11:59:00.629Z,49.7059
2023-05-21T12:00:00.835Z,49.0758
2023-05-21T12:01:03.672Z,51.0103
2023-05-21T12:02:06.262Z,50.5658
2023-05-21T12:03:08.993Z,46.9837
2023-05-21T12:04:10.852Z,46.8504
2023-05-21T12:05:13.338Z,47.7304
2023-05-21T12:07:17.659Z,50.1321
2023-05-21T12:12:24.204Z,49.4666
2023-05-21T12:13:26.572Z,50.8769
2023-05-21T12:18:35.482Z,51.8742
2023-05-21T12:20:37.316Z,52.1863
2023-05-21T12:22:38.493Z,51.5291
2023-05-21T12:25:44.153Z,51.2691
2023-05-21T12:26:46.156Z,52.8680
2023-05-21T12:27:48.106Z,52.3762
2023-05-21T12:28:48.186Z,50.2308
2023-05-21T12:29:50.016Z,51.7769
2023-05-21T12:30:52.304Z,51.5022
2023-05-21T12:31:54.265Z,52.6255
2023-05-21T12:32:57.203Z,51.9265
2023-05-21T12:33:59.598Z,49.8051
2023-05-21T12:35:02.232Z,50.2374
2023-05-21T12:36:04.762Z,51.0080
2023-05-21T12:37:07.171Z,50.5770
2023-05-21T12:43:15.219Z,52.3980
2023-05-21T12:44:17.231Z,52.8516
2023-05-21T12:45:19.242Z,53.7407
2023-05-21T12:46:21.763Z,52.6305
2023-05-21T12:47:24.368Z,58.1870
2023-05-21T12:48:26.946Z,51.0362
2023-05-21T12:49:29.857Z,54.0065
2023-05-21T12:50:30.540Z,56.8207
2023-05-21T12:51:32.981Z,54.0545
2023-05-21T12:52:34.796Z,53.7968
2023-05-21T12:53:36.555Z,51.7058
2023-05-21T12:54:39.688Z,51.8631
2023-05-21T12:58:44.769Z,54.4018
2023-05-21T12:59:47.124Z,54.3544
2023-05-21T13:00:49.499Z,53.9732
2023-05-21T13:01:52.143Z,55.0982
2023-05-21T13:02:54.878Z,56.0422
2023-05-21T13:03:57.638Z,54.7508
2023-05-21T13:04:57.229Z,54.9157
2023-05-21T13:06:00.045Z,53.5558
2023-05-21T13:07:04.849Z,54.4194
2023-05-21T13:08:04.836Z,52.8597
2023-05-21T13:09:06.556Z,51.8189
2023-05-21T13:10:08.324Z,54.0307
2023-05-21T13:11:10.964Z,53.0942
2023-05-21T13:12:12.835Z,53.5868
2023-05-21T13:13:14.612Z,53.7222
2023-05-21T13:14:16.453Z,52.9138
2023-05-21T13:15:18.879Z,53.4518
2023-05-21T13:16:21.648Z,51.7655
2023-05-21T13:24:35.091Z,55.6218
2023-05-21T13:26:36.661Z,56.0610
2023-05-21T13:27:39.177Z,54.4557
2023-05-21T13:28:42.673Z,54.1111
2023-05-21T13:29:42.516Z,53.9685
2023-05-21T13:30:45.019Z,54.2718
2023-05-21T13:31:47.533Z,55.2218
2023-05-21T13:32:49.472Z,54.1081
2023-05-21T13:33:51.454Z,54.2418
2023-05-21T13:35:55.851Z,53.3756
2023-05-21T13:36:58.452Z,51.6931
2023-05-21T13:38:01.054Z,54.8320
2023-05-21T13:39:03.449Z,56.5335
2023-05-21T13:40:05.273Z,55.1521
2023-05-21T13:41:07.688Z,49.3246
2023-05-21T13:42:10.278Z,48.9912
2023-05-21T13:43:12.866Z,50.1547
2023-05-21T13:44:15.374Z,48.3160
2023-05-21T13:45:17.177Z,50.7084
2023-05-21T13:46:19.048Z,51.3019
2023-05-21T13:47:21.374Z,50.7985
2023-05-21T13:48:23.875Z,50.5106
2023-05-21T13:49:26.373Z,51.4835
2023-05-21T13:51:38.806Z,49.8543
2023-05-21T13:52:30.463Z,50.6123
2023-05-21T13:53:32.942Z,51.2134
2023-05-21T13:54:33.721Z,50.9810
2023-05-21T13:55:33.530Z,50.2255
2023-05-21T13:56:35.277Z,49.1162
2023-05-21T13:57:37.959Z,49.1055
2023-05-21T13:58:39.790Z,50.4775
2023-05-21T14:00:44.006Z,53.9747
2023-05-21T14:01:44.535Z,57.5169
2023-05-21T14:02:44.314Z,51.8507
2023-05-21T14:03:46.880Z,52.2096
2023-05-21T14:04:49.559Z,50.4461
2023-05-21T14:05:51.534Z,47.6844
2023-05-21T14:06:53.348Z,48.7243
2023-05-21T14:07:55.935Z,57.5224
2023-05-21T14:10:59.491Z,47.8236
2023-05-21T14:12:01.731Z,50.4284
2023-05-21T14:13:15.370Z,49.3754
2023-05-21T14:14:04.434Z,46.4624
2023-05-21T14:15:06.975Z,45.4184
2023-05-21T14:16:08.810Z,46.6601
2023-05-21T14:18:11.668Z,46.7134
2023-05-21T14:19:15.100Z,46.9648
2023-05-21T14:28:28.786Z,42.5442
2023-05-21T14:29:31.265Z,45.6655
2023-05-21T14:30:33.615Z,44.6322
2023-05-21T14:31:36.108Z,44.9667
2023-05-21T14:33:39.562Z,43.9666
2023-05-21T14:34:41.352Z,43.4806
2023-05-21T14:35:44.404Z,43.6507
2023-05-21T14:39:48.437Z,45.0034
2023-05-21T14:40:51.093Z,43.8619
2023-05-21T14:41:53.751Z,43.8737
2023-05-21T14:42:56.089Z,47.7838
2023-05-21T14:43:58.497Z,44.4447
2023-05-21T14:45:16.816Z,46.1483
2023-05-21T14:47:05.956Z,39.6165
2023-05-21T14:48:08.593Z,45.5798
2023-05-21T14:49:11.532Z,43.1232
2023-05-21T14:55:21.532Z,51.0144
2023-05-21T14:56:23.981Z,44.8298
2023-05-21T14:57:26.456Z,54.3431
2023-05-21T14:59:28.742Z,49.7426
2023-05-21T15:00:32.028Z,49.1908
2023-05-21T15:08:45.557Z,61.8261
2023-05-21T15:12:53.609Z,60.9635
2023-05-21T15:15:57.189Z,59.2425
2023-05-21T15:16:59.679Z,59.9808
2023-05-21T15:18:02.364Z,61.3372
2023-05-21T15:20:04.612Z,48.1925
2023-05-21T15:21:07.082Z,54.3466
2023-05-21T15:22:09.547Z,50.4948
2023-05-21T15:23:17.290Z,45.8020
2023-05-21T15:24:14.171Z,47.4723
2023-05-21T15:25:18.316Z,50.2556
2023-05-21T15:26:17.981Z,54.5716
2023-05-21T15:27:20.941Z,53.2943
2023-05-21T15:29:22.515Z,43.2250
2023-05-21T15:30:25.038Z,41.9253
2023-05-21T15:31:27.131Z,42.9892
2023-05-21T15:32:29.152Z,42.2753
2023-05-21T15:33:31.677Z,39.9460
2023-05-21T15:34:33.358Z,40.9075
2023-05-21T15:35:35.349Z,38.6500
2023-05-21T15:36:37.378Z,40.8055
2023-05-21T15:37:39.231Z,39.5927
2023-05-21T15:38:41.564Z,39.2111
2023-05-21T15:39:44.137Z,39.5444
2023-05-21T15:42:48.530Z,40.3019
2023-05-21T15:43:50.989Z,39.9839
2023-05-21T15:44:52.861Z,42.0041
2023-05-21T15:46:56.651Z,40.8706
2023-05-21T15:47:58.472Z,41.8164
2023-05-21T15:49:01.601Z,44.2890
2023-05-21T15:51:02.280Z,40.5827
2023-05-21T15:52:04.408Z,40.9522
2023-05-21T15:53:06.277Z,39.1256
2023-05-21T15:54:19.872Z,38.0027
2023-05-21T15:55:11.161Z,41.1131
2023-05-21T15:56:12.950Z,39.6359
2023-05-21T15:57:14.800Z,41.0004
2023-05-21T15:58:39.853Z,41.6428
2023-05-21T16:00:21.612Z,40.7502
2023-05-21T16:01:23.679Z,39.8910
2023-05-21T16:02:25.601Z,40.4863
2023-05-21T16:03:27.478Z,41.7721
2023-05-21T16:04:29.834Z,41.9582
2023-05-21T16:05:31.609Z,42.6209
2023-05-21T16:06:33.438Z,41.8776
2023-05-21T16:07:37.967Z,39.4694
2023-05-21T16:08:37.999Z,39.9917
2023-05-21T16:09:39.776Z,41.2157
2023-05-21T16:10:41.643Z,41.1365
2023-05-21T16:11:44.041Z,42.3853
2023-05-21T16:12:46.084Z,41.5251
2023-05-21T16:13:48.598Z,42.2628
2023-05-21T16:14:51.048Z,40.9976
2023-05-21T16:15:52.859Z,43.6878
2023-05-21T16:16:55.449Z,43.1868
2023-05-21T16:17:58.075Z,47.8947
2023-05-21T16:19:00.517Z,46.5257
2023-05-21T16:20:03.181Z,45.5954
2023-05-21T16:21:05.093Z,45.3677
2023-05-21T16:22:07.864Z,42.7481
2023-05-21T16:23:08.274Z,41.3934
2023-05-21T16:24:10.079Z,43.4416
2023-05-21T16:25:11.891Z,43.8449
2023-05-21T16:26:13.968Z,43.6756
2023-05-21T16:27:16.971Z,46.1163
2023-05-21T16:29:18.209Z,47.9182
2023-05-21T16:30:20.635Z,47.6848
2023-05-21T16:31:23.346Z,47.4078
2023-05-21T16:32:25.177Z,48.1331
2023-05-21T16:33:27.038Z,50.7109
2023-05-21T16:35:31.188Z,55.1697
2023-05-21T16:36:32.991Z,52.6406
2023-05-21T16:37:35.491Z,54.2343
2023-05-21T16:38:38.237Z,49.8299
2023-05-21T16:39:40.033Z,55.7480
2023-05-21T16:40:41.850Z,48.9907